Airfield :
LOGIN :

Register | Disclaimer

   EN    FR    IT 

 










Legend :    VFR   Marginal VFR   IFR   Intensive IFR   Very Intensive IFR
Visi :
Ceiling :
>= 8 km
>= 3000ft
5 to 8 km
1000 to 3000 ft
1500m to 5 km
500 to 1000 ft
800 to 1500m
200 to 500 ft
< 800m
< 200 ft
Symbols :   Thunderstorms  Fog  Heavy snow  Heavy precipitations  Wind > 20 kt
SIGMETs :     Misc.  Thunderstorms  Icing  Turbulence  Mountain Waves  Volcanic Ashes






- Airport Elevation : 290 ft
- IATA code : LAI


LFRO - Lannion

CURRENT METAR :
  • 020830Z AUTO 26012KT 9999 BKN014 BKN020 OVC029 15/13 Q1016

EXPIRED METARs :
  • 020800Z AUTO 25011KT 9999 BKN013 BKN018 16/13 Q1016
  • 020730Z AUTO 26013KT 9999 SCT011 BKN016 15/13 Q1016
  • 020700Z AUTO 24009KT 9999 BKN008 OVC015 14/13 Q1016
  • 020630Z AUTO 24010KT 210V270 9999 BKN008 BKN012 BKN072 15/14 Q1015
  • 020600Z AUTO 22009KT 9999 FEW008 SCT013 OVC074 14/13 Q1015

Expired Forecast.



MET'MAP, your aeronautical weather chart ! - Copyright ORBIFLY December 2007 - Disclaimer

ORBIFLY MET'MAP TEAM :

Programming & Development : Alexandra Zaïnal
Concept & original design : Baudouin d'Aumeries
Assistance for programming : Marc-Olivier Méhu
Technical & hardware support : Manuel Goepfert

Contact : metmap@orbifly.com




SOURCES & CREDITS :

   NOAA